Wednesday, July 30, 2014, 1:10 PM EDT

KPHF, Williamsburg International Airport

Location: Newport News, VA, United States Lat: 37.133
Local Time: 1:10 PM EDT (17:10 GMT) Lon: -76.5
Time Zone: US/Eastern Elev: 42 ft

Show me the last for .
Show Decoded

2014-07-30 12:54 METAR KPHF 301654Z VRB03KT 10SM BKN100 27/13 A3009 RMK AO2 SLP187 T02720128 =
2014-07-30 11:54 METAR KPHF 301554Z 34003KT 10SM OVC100 26/11 A3010 =
2014-07-30 10:54 METAR KPHF 301454Z 00000KT 10SM BKN095 26/11 A3009 RMK AO2 SLP190 T02560111
                 52008 =
2014-07-30 09:54 METAR KPHF 301354Z 01003KT 10SM BKN090 24/12 A3009 RMK AO2 SLP187 T02440122 =
2014-07-30 08:54 METAR KPHF 301254Z 02007KT 10SM SCT090 24/13 A3008 RMK AO2 SLP183 T02390128 =
2014-07-30 07:54 METAR KPHF 301154Z 36005KT 10SM FEW044 22/14 A3007 =
2014-07-30 06:54 METAR KPHF 301054Z 36004KT 10SM CLR 19/13 A3005 =
2014-07-30 05:54 METAR KPHF 300954Z 33007KT 10SM BKN046 OVC060 21/13 A3004 RMK AO2 SLP173
                 T02110128 =
2014-07-30 04:54 METAR KPHF 300854Z 36004KT 10SM FEW044 OVC060 21/13 A3002 RMK AO2 SLP164
                 T02060128 53002 =
2014-07-30 03:54 METAR KPHF 300754Z 36005KT 10SM FEW043 BKN080 19/12 A3001 RMK AO2 SLP161
                 T01940117 =
2014-07-30 02:54 METAR KPHF 300654Z 01004KT 10SM FEW045 OVC100 21/13 A3000 RMK AO2 SLP158
                 T02060128 =
2014-07-30 01:54 METAR KPHF 300554Z 36003KT 10SM SCT044 OVC110 22/13 A3001 RMK AO2 SLP162
                 T02170128 10244 20194 50001 =
2014-07-30 00:54 METAR KPHF 300454Z 01003KT 10SM FEW085 BKN110 22/14 A3002 RMK AO2 SLP165
                 T02170139 402890194 =
2014-07-29 23:54 METAR KPHF 300354Z 01004KT 10SM FEW044 BKN060 BKN080 22/15 A3002 =
2014-07-29 22:54 METAR KPHF 300254Z 06003KT 10SM BKN060 21/16 A3001 RMK AO2 SLP161 T02110156
                 51018 =
2014-07-29 21:54 METAR KPHF 300154Z 05003KT 10SM FEW060 BKN080 21/14 A3000 RMK AO2 SLP156
                 T02110144 =
2014-07-29 20:54 METAR KPHF 300054Z 05003KT 10SM CLR 22/15 A2998 RMK AO2 SLP150 T02170150 =
2014-07-29 19:54 METAR KPHF 292354Z AUTO 01004KT 10SM CLR 23/17 A2996 RMK AO2 SLP143 T02330167
                 10289 20233 51007 TSNO =
2014-07-29 18:54 METAR KPHF 292254Z AUTO 01004KT 10SM CLR 26/14 A2995 =
2014-07-29 17:54 METAR KPHF 292154Z AUTO 36004KT 10SM CLR 28/14 A2994 RMK AO2 SLP139 T02780139
                 TSNO =
2014-07-29 16:54 METAR KPHF 292054Z AUTO 06006KT 10SM CLR 28/12 A2993 RMK AO2 SLP136 T02830122
                 55001 TSNO =
2014-07-29 15:54 METAR KPHF 291954Z AUTO 01007KT 310V040 10SM SCT060 28/12 A2993 RMK AO2 SLP134
                 T02830122 TSNO =
2014-07-29 14:54 METAR KPHF 291854Z AUTO VRB05KT 10SM FEW055 27/12 A2994 RMK AO2 SLP137 T02720122
                 TSNO =
2014-07-29 13:54 METAR KPHF 291754Z 35007KT 10SM FEW045 28/14 A2994 RMK AO2 SLP137 T02780144
                 10278 20222 53002 =

Support USWX by starting your Amazon purchase here.